Flight Track Log - Related Links

Times and Time Zones

All times are in EDT time to prevent confusion due to time zone crossing. See the SKW5195 flight status page for this flight to view local times or setup timezone preferences in your user account.

Time Position Orientation Groundspeed Altitude Reporting Facility
EDT Latitude Longitude Course Direction KTS MPH feet Rate Location/Type
Sat 12:56:19 PM 29.9639 -95.3433 197° South 164 189 600  Level Houston Center
Sat 12:57:02 PM 29.9333 -95.3542 197° South 188 216 1,800 1,778 Climbing Houston Center
Sat 12:58:07 PM 29.8906 -95.4164 232° Southwest 239 275 3,800 2,031 Climbing Houston Center
Sat 12:59:09 PM 29.8439 -95.4867 233° Southwest 268 308 6,100 2,878 Climbing Houston Center
Sat 01:00:10 PM 29.8053 -95.5600 239° Southwest 276 318 9,700 2,634 Climbing Houston Center
Sat 01:01:12 PM 29.8017 -95.6528 267° West 290 334 11,500 2,129 Climbing Houston Center
Sat 01:02:14 PM 29.7956 -95.7569 266° West 320 368 14,100 2,537 Climbing Houston Center
Sat 01:03:15 PM 29.7908 -95.8861 268° West 338 389 16,700 2,439 Climbing Houston Center
Sat 01:04:17 PM 29.7869 -95.9958 268° West 344 396 19,100 2,226 Climbing Houston Center
Sat 01:05:19 PM 29.7825 -96.0942 267° West 331 381 21,300 1,839 Climbing Houston Center
Sat 01:06:21 PM 29.7806 -96.2028 269° West 338 389 22,900 1,317 Climbing Houston Center
Sat 01:07:22 PM 29.7914 -96.3419 275° West 363 418 24,000 537 Climbing Houston Center
Sat 01:08:24 PM 29.8003 -96.4678 275° West 390 449 24,000  Level Houston Center
Sat 01:09:26 PM 29.8103 -96.5964 275° West 404 465 24,000  Level Houston Center
Sat 01:10:27 PM 29.8186 -96.7172 275° West 386 444 24,000 -195 Level Houston Center
Sat 01:11:29 PM 29.8278 -96.8331 275° West 370 426 23,600 -774 Descending Houston Center
Sat 01:12:31 PM 29.8353 -96.9500 274° West 369 425 22,400 -1,610 Descending Houston Center
Sat 01:13:32 PM 29.8450 -97.0867 275° West 360 414 20,300 -1,805 Descending Houston Center
Sat 01:14:34 PM 29.8525 -97.1983 274° West 354 407 18,700 -1,258 Descending Houston Center
Sat 01:15:36 PM 29.8606 -97.3117 275° West 356 410 17,700 -1,024 Descending Houston Center
Sat 01:16:37 PM 29.8678 -97.4228 274° West 351 404 16,600 -1,024 Descending Houston Center
Sat 01:17:39 PM 29.8747 -97.5325 274° West 345 397 15,600 -1,016 Descending Houston Center
Sat 01:18:41 PM 29.8831 -97.6542 275° West 342 394 14,500 -1,024 Descending Houston Center
Sat 01:19:42 PM 29.8911 -97.7758 274° West 354 407 13,500 -738 Descending Houston Center
Sat 01:20:43 PM 29.8864 -97.8872 267° West 360 414 13,000 -581 Descending Houston Center
Sat 01:21:46 PM 29.8425 -97.9914 244° Southwest 360 414 12,300 -774 Descending Houston Center
Sat 01:22:47 PM 29.7808 -98.0936 235° Southwest 363 418 11,400 -816 Descending Houston Center
Sat 01:23:51 PM 29.6953 -98.1736 219° Southwest 374 430 10,600 -634 Descending Houston Center
Sat 01:24:50 PM 29.6289 -98.2367 220° Southwest 323 372 10,100 -939 Descending Houston Center
Sat 01:25:46 PM 29.5717 -98.2897 219° Southwest 267 307 8,800 -1,568 Descending Houston Center
Sat 01:26:41 PM 29.5175 -98.3397 219° Southwest 269 310 7,200 -1,835 Descending Houston Center
Sat 01:27:47 PM 29.4589 -98.4092 226° Southwest 278 320 5,100 -1,465 Descending Houston Center
Sat 01:28:48 PM 29.4089 -98.4825 232° Southwest 263 303 4,100 -984 Descending Houston Center

Login

Don't have an account? Register now (free) for customized features, flight alerts, and more!